createdAt,value
2022-12-09T00:00:07.495Z,20.27
2022-12-09T00:02:34.883Z,19.53
2022-12-09T00:05:02.227Z,19.93
2022-12-09T00:07:29.526Z,20.43
2022-12-09T00:09:57.026Z,19.53
2022-12-09T00:12:23.730Z,22.60
2022-12-09T00:14:50.369Z,21.07
2022-12-09T00:17:17.470Z,21.43
2022-12-09T00:19:44.503Z,19.83
2022-12-09T00:22:11.542Z,21.27
2022-12-09T00:24:38.633Z,22.07
2022-12-09T00:27:06.089Z,22.23
2022-12-09T00:29:33.254Z,19.80
2022-12-09T00:32:00.232Z,23.33
2022-12-09T00:34:27.505Z,21.73
2022-12-09T00:36:54.516Z,23.17
2022-12-09T00:39:21.417Z,21.67
2022-12-09T00:41:49.300Z,24.27
2022-12-09T00:44:16.677Z,21.77
2022-12-09T00:46:44.005Z,23.27
2022-12-09T00:49:11.532Z,24.40
2022-12-09T00:51:38.605Z,23.00
2022-12-09T00:54:05.603Z,23.63
2022-12-09T00:56:32.909Z,23.70
2022-12-09T00:59:00.121Z,23.13
2022-12-09T01:01:27.890Z,21.97
2022-12-09T01:03:55.318Z,22.27
2022-12-09T01:06:24.482Z,24.13
2022-12-09T01:08:51.722Z,23.73
2022-12-09T01:11:21.155Z,24.17
2022-12-09T01:13:48.383Z,22.60
2022-12-09T01:16:16.551Z,23.33
2022-12-09T01:18:44.718Z,24.70
2022-12-09T01:21:12.108Z,22.97
2022-12-09T01:23:39.033Z,22.50
2022-12-09T01:26:06.470Z,23.67
2022-12-09T01:28:39.749Z,21.70
2022-12-09T01:31:07.953Z,22.57
2022-12-09T01:33:34.982Z,24.73
2022-12-09T01:36:04.977Z,23.07
2022-12-09T01:38:32.095Z,23.90
2022-12-09T01:40:59.326Z,24.20
2022-12-09T01:43:26.377Z,24.57
2022-12-09T01:45:54.295Z,23.93
2022-12-09T01:48:25.061Z,25.97
2022-12-09T01:50:54.982Z,25.30
2022-12-09T01:53:25.589Z,24.87
2022-12-09T01:55:53.749Z,25.80
2022-12-09T01:58:20.837Z,26.27
2022-12-09T02:00:48.164Z,24.67
2022-12-09T02:03:15.553Z,24.33
2022-12-09T02:05:43.460Z,25.03
2022-12-09T02:08:12.528Z,23.90
2022-12-09T02:10:45.024Z,25.13
2022-12-09T02:13:20.320Z,25.40
2022-12-09T02:15:52.272Z,23.13
2022-12-09T02:18:24.638Z,24.40
2022-12-09T02:20:57.241Z,25.93
2022-12-09T02:23:29.883Z,23.80
2022-12-09T02:26:05.395Z,25.03
2022-12-09T02:28:52.294Z,23.47
2022-12-09T02:31:28.966Z,24.40
2022-12-09T02:34:13.055Z,24.73
2022-12-09T02:36:49.374Z,23.83
2022-12-09T02:39:16.290Z,25.60
2022-12-09T02:41:48.541Z,24.63
2022-12-09T02:44:18.709Z,25.67
2022-12-09T02:46:46.642Z,25.13
2022-12-09T02:49:14.788Z,24.33
2022-12-09T02:51:43.284Z,25.33
2022-12-09T02:54:14.185Z,26.70
2022-12-09T02:56:45.372Z,27.17
2022-12-09T02:59:12.303Z,28.10
2022-12-09T03:01:48.330Z,27.17
2022-12-09T03:04:19.816Z,26.00
2022-12-09T03:06:51.575Z,26.93
2022-12-09T03:09:21.636Z,26.23
2022-12-09T03:11:50.191Z,27.40
2022-12-09T03:14:22.629Z,27.00
2022-12-09T03:16:54.567Z,25.83
2022-12-09T03:19:26.653Z,26.13
2022-12-09T03:21:56.847Z,25.33
2022-12-09T03:24:29.034Z,26.20
2022-12-09T03:26:57.920Z,25.40
2022-12-09T03:29:28.655Z,25.80
2022-12-09T03:31:57.893Z,26.47
2022-12-09T03:34:30.407Z,25.23
2022-12-09T03:36:58.427Z,24.97
2022-12-09T03:39:29.417Z,25.50
2022-12-09T03:42:00.166Z,25.23
2022-12-09T03:44:35.054Z,24.07
2022-12-09T03:47:04.092Z,24.87
2022-12-09T03:49:32.001Z,24.50
2022-12-09T03:52:04.016Z,25.00
2022-12-09T03:54:35.426Z,25.27
2022-12-09T03:57:02.938Z,26.50
2022-12-09T03:59:34.319Z,26.27
2022-12-09T04:02:02.891Z,25.43
2022-12-09T04:04:30.505Z,26.10
2022-12-09T04:06:58.130Z,26.47
2022-12-09T04:09:25.336Z,25.40
2022-12-09T04:11:52.400Z,25.83
2022-12-09T04:14:19.374Z,26.93
2022-12-09T04:16:46.426Z,26.90
2022-12-09T04:19:13.802Z,27.23
2022-12-09T04:21:41.128Z,26.60
2022-12-09T04:24:10.138Z,27.97
2022-12-09T04:26:37.040Z,28.63
2022-12-09T04:29:04.392Z,27.70
2022-12-09T04:31:31.628Z,26.47
2022-12-09T04:34:01.549Z,27.77
2022-12-09T04:36:30.884Z,26.27
2022-12-09T04:38:57.765Z,25.43
2022-12-09T04:41:25.267Z,26.10
2022-12-09T04:43:52.436Z,26.33
2022-12-09T04:46:19.574Z,27.83
2022-12-09T04:48:47.040Z,25.97
2022-12-09T04:51:15.013Z,26.57
2022-12-09T04:53:41.988Z,26.97
2022-12-09T04:56:11.643Z,27.20
2022-12-09T04:58:39.074Z,27.53
2022-12-09T05:01:06.964Z,29.10
2022-12-09T05:03:34.526Z,26.77
2022-12-09T05:06:03.383Z,26.03
2022-12-09T05:08:31.830Z,26.90
2022-12-09T05:11:00.063Z,26.37
2022-12-09T05:13:27.425Z,27.13
2022-12-09T05:15:59.104Z,26.13
2022-12-09T05:18:26.560Z,27.70
2022-12-09T05:20:53.524Z,28.37
2022-12-09T05:23:20.809Z,28.00
2022-12-09T05:25:47.724Z,25.43
2022-12-09T05:28:15.025Z,26.20
2022-12-09T05:30:42.327Z,25.50
2022-12-09T05:33:10.020Z,25.33
2022-12-09T05:35:45.058Z,25.40
2022-12-09T05:38:17.941Z,25.20
2022-12-09T05:40:44.900Z,23.13
2022-12-09T05:43:12.098Z,26.70
2022-12-09T05:45:39.100Z,24.80
2022-12-09T05:48:06.837Z,25.47
2022-12-09T05:50:34.283Z,24.70
2022-12-09T05:53:01.487Z,24.17
2022-12-09T05:55:29.012Z,23.93
2022-12-09T05:57:56.223Z,25.00
2022-12-09T06:00:23.848Z,27.60
2022-12-09T06:02:51.069Z,25.17
2022-12-09T06:05:18.452Z,26.73
2022-12-09T06:07:46.380Z,26.67
2022-12-09T06:10:14.189Z,27.43
2022-12-09T06:12:41.719Z,27.30
2022-12-09T06:15:10.615Z,24.80
2022-12-09T06:17:38.757Z,24.87
2022-12-09T06:20:07.759Z,25.80
2022-12-09T06:22:35.325Z,23.03
2022-12-09T06:25:03.955Z,24.97
2022-12-09T06:27:30.930Z,24.40
2022-12-09T06:29:57.824Z,24.17
2022-12-09T06:32:25.168Z,23.13
2022-12-09T06:34:52.248Z,24.93
2022-12-09T06:37:20.087Z,23.17
2022-12-09T06:39:47.349Z,26.43
2022-12-09T06:42:14.999Z,24.10
2022-12-09T06:44:42.065Z,24.50
2022-12-09T06:47:09.193Z,24.97
2022-12-09T06:49:36.575Z,30.57
2022-12-09T06:52:04.507Z,25.00
2022-12-09T06:54:31.541Z,23.13
2022-12-09T06:56:58.510Z,22.27
2022-12-09T06:59:26.288Z,22.67
2022-12-09T07:01:53.484Z,23.33
2022-12-09T07:04:22.368Z,22.23
2022-12-09T07:06:49.767Z,23.33
2022-12-09T07:09:18.831Z,20.97
2022-12-09T07:11:47.054Z,19.83
2022-12-09T07:14:14.771Z,21.07
2022-12-09T07:16:42.385Z,19.13
2022-12-09T07:19:17.042Z,19.20
2022-12-09T07:21:44.336Z,19.60
2022-12-09T07:24:12.037Z,21.47
2022-12-09T07:26:39.429Z,18.20
2022-12-09T07:29:07.391Z,20.00
2022-12-09T07:31:35.401Z,21.50
2022-12-09T07:34:04.156Z,20.87
2022-12-09T07:36:33.822Z,20.13
2022-12-09T07:39:03.263Z,20.77
2022-12-09T07:41:30.479Z,22.90
2022-12-09T07:43:57.970Z,21.63
2022-12-09T07:46:26.796Z,24.40
2022-12-09T07:48:54.555Z,26.17
2022-12-09T07:51:23.507Z,25.03
2022-12-09T07:53:50.996Z,26.30
2022-12-09T07:56:21.691Z,26.70
2022-12-09T07:58:50.644Z,29.93
2022-12-09T08:01:20.373Z,29.17
2022-12-09T08:03:48.553Z,28.10
2022-12-09T08:06:18.301Z,29.90
2022-12-09T08:08:46.429Z,27.10
2022-12-09T08:11:17.087Z,26.67
2022-12-09T08:13:44.448Z,28.13
2022-12-09T08:16:13.296Z,30.47
2022-12-09T08:18:41.281Z,28.57
2022-12-09T08:21:11.079Z,27.27
2022-12-09T08:23:38.789Z,28.63
2022-12-09T08:26:06.953Z,29.50
2022-12-09T08:28:34.249Z,28.13
2022-12-09T08:31:06.338Z,27.73
2022-12-09T08:33:34.293Z,26.93
2022-12-09T08:36:02.017Z,29.07
2022-12-09T08:38:30.872Z,30.80
2022-12-09T08:40:57.878Z,30.20
2022-12-09T08:43:25.191Z,31.13
2022-12-09T08:45:52.506Z,30.63
2022-12-09T08:48:20.517Z,28.77
2022-12-09T08:50:48.039Z,31.00
2022-12-09T08:53:15.342Z,30.20
2022-12-09T08:55:42.990Z,32.80
2022-12-09T08:58:10.436Z,34.43
2022-12-09T09:00:38.446Z,33.70
2022-12-09T09:03:05.886Z,32.77
2022-12-09T09:05:33.205Z,31.87
2022-12-09T09:08:00.359Z,33.50
2022-12-09T09:10:29.408Z,32.50
2022-12-09T09:12:56.829Z,32.97
2022-12-09T09:15:23.993Z,33.60
2022-12-09T09:17:53.245Z,32.77
2022-12-09T09:20:20.394Z,31.30
2022-12-09T09:22:47.829Z,34.70
2022-12-09T09:25:15.849Z,32.07
2022-12-09T09:27:43.377Z,30.57
2022-12-09T09:30:10.927Z,29.90
2022-12-09T09:32:38.795Z,32.20
2022-12-09T09:35:08.706Z,32.77
2022-12-09T09:37:36.274Z,30.43
2022-12-09T09:40:04.055Z,31.20
2022-12-09T09:42:35.792Z,31.50
2022-12-09T09:45:09.976Z,29.73
2022-12-09T09:47:41.083Z,31.20
2022-12-09T09:50:27.522Z,31.00
2022-12-09T09:52:55.363Z,29.97
2022-12-09T09:55:31.879Z,29.50
2022-12-09T09:58:06.007Z,29.93
2022-12-09T10:00:39.718Z,28.67
2022-12-09T10:03:12.365Z,31.50
2022-12-09T10:05:49.122Z,34.63
2022-12-09T10:08:32.406Z,31.60
2022-12-09T10:11:17.006Z,31.77
2022-12-09T10:13:49.460Z,31.13
2022-12-09T10:16:18.916Z,31.57
2022-12-09T10:19:07.732Z,31.60
2022-12-09T10:21:40.196Z,30.97
2022-12-09T10:24:21.075Z,28.10
2022-12-09T10:26:57.165Z,31.77
2022-12-09T10:29:39.594Z,27.53
2022-12-09T10:32:09.033Z,29.10
2022-12-09T10:34:36.482Z,29.93
2022-12-09T10:37:04.506Z,29.57
2022-12-09T10:39:31.722Z,32.80
2022-12-09T10:42:17.524Z,26.40
2022-12-09T10:44:44.495Z,55.57
2022-12-09T10:47:24.027Z,40.67
2022-12-09T10:49:54.233Z,26.97
2022-12-09T10:52:23.631Z,24.63
2022-12-09T10:54:50.959Z,24.03
2022-12-09T10:57:26.600Z,24.00
2022-12-09T11:00:00.247Z,21.07
2022-12-09T11:02:28.617Z,21.67
2022-12-09T11:04:56.886Z,20.27
2022-12-09T11:07:26.422Z,21.20
2022-12-09T11:10:06.965Z,21.67
2022-12-09T11:12:40.918Z,19.87
2022-12-09T11:15:27.201Z,20.53
2022-12-09T11:17:57.677Z,20.37
2022-12-09T11:20:28.459Z,19.53
2022-12-09T11:23:02.415Z,20.10
2022-12-09T11:25:31.083Z,20.77
2022-12-09T11:27:59.955Z,21.07
2022-12-09T11:30:29.835Z,20.07
2022-12-09T11:33:05.241Z,20.60
2022-12-09T11:35:37.350Z,20.23
2022-12-09T11:38:17.543Z,19.27
2022-12-09T11:40:58.902Z,19.27
2022-12-09T11:43:33.037Z,18.73
2022-12-09T11:46:00.113Z,19.63
2022-12-09T11:48:35.045Z,21.27
2022-12-09T11:51:05.913Z,19.33
2022-12-09T11:53:38.906Z,18.90
2022-12-09T11:56:11.558Z,18.97
2022-12-09T11:58:42.468Z,19.77
2022-12-09T12:01:15.415Z,18.87
2022-12-09T12:03:47.643Z,18.00
2022-12-09T12:06:19.182Z,16.37
2022-12-09T12:08:51.230Z,17.20
2022-12-09T12:11:24.320Z,15.93
2022-12-09T12:13:57.514Z,15.30
2022-12-09T12:16:36.122Z,16.57
2022-12-09T12:19:13.566Z,17.80
2022-12-09T12:22:18.121Z,15.30
2022-12-09T12:25:03.072Z,15.87
2022-12-09T12:27:49.661Z,13.77
2022-12-09T12:30:19.241Z,14.93
2022-12-09T12:35:59.352Z,15.57
2022-12-09T12:38:36.147Z,16.57
2022-12-09T12:41:11.463Z,16.63
2022-12-09T12:44:15.159Z,16.63
2022-12-09T12:46:53.226Z,17.77
2022-12-09T12:49:45.961Z,17.00
2022-12-09T12:52:54.509Z,19.57
2022-12-09T12:55:35.618Z,19.43
2022-12-09T12:58:09.630Z,18.50
2022-12-09T13:00:44.282Z,18.40
2022-12-09T13:03:23.994Z,19.93
2022-12-09T13:05:53.814Z,19.37
2022-12-09T13:08:26.031Z,16.83
2022-12-09T13:10:55.615Z,15.50
2022-12-09T13:13:29.725Z,16.10
2022-12-09T13:16:00.255Z,17.53
2022-12-09T13:18:31.298Z,17.70
2022-12-09T13:20:59.643Z,17.43
2022-12-09T13:23:40.442Z,18.10
2022-12-09T13:26:18.252Z,18.67
2022-12-09T13:28:50.618Z,17.97
2022-12-09T13:31:20.336Z,18.33
2022-12-09T13:33:58.853Z,19.27
2022-12-09T13:36:36.712Z,20.43
2022-12-09T13:39:04.148Z,20.50
2022-12-09T13:42:02.916Z,18.20
2022-12-09T13:44:37.567Z,16.77
2022-12-09T13:47:25.030Z,17.77
2022-12-09T13:50:22.709Z,16.43
2022-12-09T13:52:52.463Z,14.53
2022-12-09T13:55:33.425Z,15.87
2022-12-09T13:58:29.758Z,16.87
2022-12-09T14:01:06.727Z,16.50
2022-12-09T14:03:36.942Z,18.27
2022-12-09T14:06:17.284Z,16.37
2022-12-09T14:08:49.209Z,20.63
2022-12-09T14:11:41.615Z,18.63
2022-12-09T14:14:57.487Z,20.23
2022-12-09T14:18:02.522Z,20.23
2022-12-09T14:20:35.855Z,19.47
2022-12-09T14:23:15.977Z,19.83
2022-12-09T14:26:03.883Z,22.03
2022-12-09T14:28:54.086Z,21.73
2022-12-09T14:31:48.095Z,22.40
2022-12-09T14:34:38.262Z,21.70
2022-12-09T14:37:37.966Z,22.60
2022-12-09T14:40:24.418Z,22.53
2022-12-09T14:42:57.663Z,23.47
2022-12-09T14:45:30.463Z,23.63
2022-12-09T14:47:57.565Z,23.57
2022-12-09T14:50:28.545Z,24.30
2022-12-09T14:53:00.333Z,21.30
2022-12-09T14:55:28.931Z,23.07
2022-12-09T14:57:58.061Z,23.00
2022-12-09T15:00:27.776Z,23.97
2022-12-09T15:03:30.081Z,22.50
2022-12-09T15:05:54.395Z,23.07
2022-12-09T15:08:32.393Z,21.00
2022-12-09T15:11:01.515Z,22.03
2022-12-09T15:13:28.499Z,21.37
2022-12-09T15:15:55.541Z,22.93
2022-12-09T15:18:25.041Z,22.07
2022-12-09T15:20:55.155Z,24.17
2022-12-09T15:23:23.304Z,22.57
2022-12-09T15:25:53.375Z,21.17
2022-12-09T15:28:26.290Z,22.17
2022-12-09T15:30:58.011Z,18.10
2022-12-09T15:33:25.647Z,17.80
2022-12-09T15:35:57.151Z,19.93
2022-12-09T15:38:26.821Z,20.43
2022-12-09T15:41:12.929Z,20.53
2022-12-09T15:43:41.158Z,20.97
2022-12-09T15:46:08.613Z,20.57
2022-12-09T15:48:40.369Z,19.73
2022-12-09T15:51:12.432Z,21.27
2022-12-09T15:53:42.946Z,21.37
2022-12-09T15:56:14.937Z,22.40
2022-12-09T15:58:49.150Z,24.53
2022-12-09T16:01:22.311Z,24.10
2022-12-09T16:03:51.157Z,24.63
2022-12-09T16:06:25.209Z,26.90
2022-12-09T16:08:52.132Z,26.87
2022-12-09T16:11:34.490Z,25.63
2022-12-09T16:14:01.809Z,26.70
2022-12-09T16:16:36.276Z,26.10
2022-12-09T16:19:03.203Z,23.70
2022-12-09T16:21:33.376Z,24.00
2022-12-09T16:24:06.854Z,24.90
2022-12-09T16:26:37.313Z,26.53
2022-12-09T16:29:06.715Z,25.80
2022-12-09T16:31:33.954Z,26.27
2022-12-09T16:34:00.938Z,33.53
2022-12-09T16:36:30.087Z,37.40
2022-12-09T16:39:41.487Z,31.37
2022-12-09T16:42:23.483Z,28.73
2022-12-09T16:44:50.469Z,29.20
2022-12-09T16:47:18.648Z,29.67
2022-12-09T16:49:47.058Z,25.43
2022-12-09T16:52:15.826Z,25.30
2022-12-09T16:54:44.242Z,25.17
2022-12-09T16:57:16.848Z,24.47
2022-12-09T16:59:45.164Z,24.13
2022-12-09T17:02:20.885Z,25.40
2022-12-09T17:04:48.409Z,22.47
2022-12-09T17:07:15.438Z,22.17
2022-12-09T17:09:42.226Z,25.60
2022-12-09T17:12:09.337Z,23.77
2022-12-09T17:14:36.285Z,22.90
2022-12-09T17:17:03.861Z,23.83
2022-12-09T17:19:30.985Z,22.73
2022-12-09T17:21:57.895Z,20.87
2022-12-09T17:24:25.178Z,23.23
2022-12-09T17:26:52.292Z,22.33
2022-12-09T17:29:19.210Z,21.77
2022-12-09T17:31:48.873Z,20.20
2022-12-09T17:34:16.505Z,22.87
2022-12-09T17:36:43.874Z,26.47
2022-12-09T17:39:12.075Z,24.50
2022-12-09T17:41:39.146Z,23.53
2022-12-09T17:44:06.351Z,24.80
2022-12-09T17:46:35.889Z,29.87
2022-12-09T17:49:03.091Z,25.60
2022-12-09T17:51:35.665Z,24.17
2022-12-09T17:54:03.629Z,24.17
2022-12-09T17:56:30.776Z,24.70
2022-12-09T17:59:00.129Z,22.30
2022-12-09T18:01:27.462Z,21.57
2022-12-09T18:04:00.422Z,25.67
2022-12-09T18:06:33.316Z,26.97
2022-12-09T18:09:00.483Z,26.00
2022-12-09T18:11:27.406Z,24.73
2022-12-09T18:13:54.576Z,22.60
2022-12-09T18:16:21.771Z,21.53
2022-12-09T18:18:49.292Z,19.07
2022-12-09T18:21:18.830Z,20.13
2022-12-09T18:23:47.466Z,20.13
2022-12-09T18:26:16.162Z,19.23
2022-12-09T18:28:43.891Z,20.37
2022-12-09T18:31:13.423Z,22.23
2022-12-09T18:33:41.169Z,20.50
2022-12-09T18:36:10.599Z,17.67
2022-12-09T18:38:37.677Z,16.87
2022-12-09T18:41:10.262Z,18.20
2022-12-09T18:43:42.416Z,22.70
2022-12-09T18:46:11.008Z,19.13
2022-12-09T18:48:38.907Z,23.47
2022-12-09T18:51:08.014Z,22.40
2022-12-09T18:53:37.889Z,21.97
2022-12-09T18:56:05.970Z,20.77
2022-12-09T18:59:04.298Z,21.43
2022-12-09T19:01:23.357Z,21.73
2022-12-09T19:03:51.325Z,20.67
2022-12-09T19:06:20.561Z,19.63
2022-12-09T19:08:47.936Z,17.57
2022-12-09T19:11:15.396Z,24.80
2022-12-09T19:13:42.335Z,23.60
2022-12-09T19:16:09.410Z,28.87
2022-12-09T19:18:37.616Z,25.97
2022-12-09T19:21:08.940Z,25.50
2022-12-09T19:23:36.169Z,28.60
2022-12-09T19:26:05.413Z,27.60
2022-12-09T19:28:32.942Z,21.30
2022-12-09T19:31:00.005Z,19.50
2022-12-09T19:33:27.042Z,18.33
2022-12-09T19:35:53.981Z,19.00
2022-12-09T19:38:21.033Z,21.97
2022-12-09T19:40:48.619Z,22.00
2022-12-09T19:43:15.711Z,20.60
2022-12-09T19:45:44.289Z,19.67
2022-12-09T19:48:11.860Z,20.93
2022-12-09T19:50:38.775Z,19.50
2022-12-09T19:53:05.757Z,21.60
2022-12-09T19:55:37.248Z,20.20
2022-12-09T19:58:04.579Z,18.93
2022-12-09T20:00:32.926Z,18.80
2022-12-09T20:03:04.998Z,19.30
2022-12-09T20:05:32.721Z,19.53
2022-12-09T20:08:22.437Z,17.37
2022-12-09T20:11:14.512Z,18.30
2022-12-09T20:13:44.884Z,18.30
2022-12-09T20:16:14.217Z,18.50
2022-12-09T20:18:41.947Z,18.60
2022-12-09T20:21:13.906Z,18.27
2022-12-09T20:23:42.289Z,18.33
2022-12-09T20:26:10.811Z,17.87
2022-12-09T20:28:38.793Z,18.27
2022-12-09T20:31:08.451Z,17.87
2022-12-09T20:33:35.884Z,17.80
2022-12-09T20:36:08.870Z,19.07
2022-12-09T20:38:35.923Z,20.13
2022-12-09T20:41:04.639Z,19.90
2022-12-09T20:43:38.603Z,22.57
2022-12-09T20:46:25.852Z,21.10
2022-12-09T20:59:20.530Z,21.70
2022-12-09T21:27:20.005Z,17.00
2022-12-09T21:47:39.938Z,18.43
2022-12-09T21:54:33.051Z,18.30
2022-12-09T21:57:16.212Z,16.90
2022-12-09T22:00:34.767Z,18.43
2022-12-09T22:04:18.439Z,18.40
2022-12-09T22:06:56.830Z,19.70
2022-12-09T22:16:29.807Z,17.47
2022-12-09T22:19:05.750Z,18.63
2022-12-09T22:37:35.247Z,18.47
2022-12-09T22:46:43.600Z,17.80
2022-12-09T22:52:49.942Z,17.73
2022-12-09T22:55:55.937Z,17.70
2022-12-09T22:58:25.202Z,16.43
2022-12-09T23:01:51.896Z,17.77
2022-12-09T23:10:08.283Z,16.90
2022-12-09T23:12:40.071Z,17.30
2022-12-09T23:15:11.204Z,17.70
2022-12-09T23:17:40.922Z,16.63
2022-12-09T23:26:01.729Z,18.87
2022-12-09T23:28:32.015Z,18.70
2022-12-09T23:31:03.130Z,16.73
2022-12-09T23:33:34.016Z,17.30
2022-12-09T23:36:21.307Z,16.93
2022-12-09T23:39:26.813Z,16.50
2022-12-09T23:47:06.787Z,16.63
2022-12-09T23:48:12.451Z,16.60
2022-12-09T23:50:41.290Z,15.50
2022-12-09T23:53:14.607Z,16.23
2022-12-09T23:55:47.466Z,16.47
2022-12-09T23:58:24.432Z,18.33
